Time;durP1;ratioP1;P1;durP2;ratioP2;P2;SDS_P1;SDS_P2;PMS_P1;PMS_P2;Temp;Humidity;BMP_temperature;BMP_pressure;BME280_temperature;BME280_humidity;BME280_pressure;Samples;Min_cycle;Max_cycle;Signal;HPM_P1;HPM_P2
2022/10/22 00:01:38;;;;;;;;;;;;;;;5.44;55.26;101681.97;1723459;83;27412;-60
2022/10/22 00:04:06;;;;;;;;;;;;;;;5.47;55.37;101676.48;1723162;83;25891;-59
2022/10/22 00:06:33;;;;;;;;;;;;;;;5.48;55.59;101667.05;1687269;83;25727;-59
2022/10/22 00:08:59;;;;;;;;;;;;;;;5.50;55.62;101657.66;1666425;86;25807;-60
2022/10/22 00:11:25;;;;;;;;;;;;;;;5.49;55.65;101649.25;1666420;85;25764;-59
2022/10/22 00:13:52;;;;;;;;;;;;;;;5.53;55.59;101645.45;1666725;84;27603;-60
2022/10/22 00:16:19;;;;;;;;;;;;;;;5.56;55.88;101647.97;1666344;86;25783;-59
2022/10/22 00:18:46;;;;;;;;;;;;;;;5.61;56.05;101645.06;1666350;86;25962;-60
2022/10/22 00:21:13;;;;;;;;;;;;;;;5.65;55.51;101635.92;1666618;86;25802;-60
2022/10/22 00:23:42;;;;;;;;;;;;;;;5.71;55.32;101638.28;1672696;83;25915;-61
2022/10/22 00:26:09;;;;;;;;;;;;;;;5.78;55.58;101635.66;1728864;83;28125;-59
2022/10/22 00:28:36;;;;;;;;;;;;;;;5.84;55.21;101629.13;1728833;83;25788;-60
2022/10/22 00:31:03;;;;;;;;;;;;;;;5.88;55.19;101613.31;1728649;82;25808;-59
2022/10/22 00:33:30;;;;;;;;;;;;;;;5.94;55.07;101613.45;1728115;82;25964;-60
2022/10/22 00:35:57;;;;;;;;;;;;;;;5.97;54.93;101599.93;1699151;83;25627;-60
2022/10/22 00:38:24;;;;;;;;;;;;;;;6.02;55.05;101593.88;1706934;83;27532;-60
2022/10/22 00:40:50;;;;;;;;;;;;;;;6.04;54.75;101589.80;1690565;84;25643;-60
2022/10/22 00:43:18;;;;;;;;;;;;;;;6.08;54.87;101592.67;1698849;83;25740;-61
2022/10/22 00:45:45;;;;;;;;;;;;;;;6.09;54.64;101584.59;1699486;84;25929;-60
2022/10/22 00:48:16;;;;;;;;;;;;;;;6.13;54.49;101579.93;1699408;84;25811;-60
2022/10/22 00:50:56;;;;;;;;;;;;;;;6.16;54.46;101572.21;1692379;84;27557;-61
2022/10/22 00:53:26;;;;;;;;;;;;;;;6.17;54.41;101564.09;1674589;83;25798;-60
2022/10/22 00:55:53;;;;;;;;;;;;;;;6.19;54.90;101560.88;1674206;85;26317;-59
2022/10/22 00:58:23;;;;;;;;;;;;;;;6.15;55.62;101578.01;1673819;85;25949;-60
2022/10/22 01:00:49;;;;;;;;;;;;;;;6.08;55.20;101570.84;1673959;85;25792;-60
2022/10/22 01:03:15;;;;;;;;;;;;;;;6.10;55.17;101574.27;1674395;84;27497;-60
2022/10/22 01:05:57;;;;;;;;;;;;;;;6.15;55.26;101573.16;1673632;85;25824;-59
2022/10/22 01:08:46;;;;;;;;;;;;;;;6.19;55.20;101558.20;1688705;83;26477;-59
2022/10/22 01:11:20;;;;;;;;;;;;;;;6.25;55.00;101565.84;1723959;83;26606;-60
2022/10/22 01:13:50;;;;;;;;;;;;;;;6.30;55.24;101560.23;1731329;83;25752;-60
2022/10/22 01:16:55;;;;;;;;;;;;;;;6.32;55.30;101552.16;1730570;82;27519;-59
2022/10/22 01:19:28;;;;;;;;;;;;;;;6.35;55.25;101546.16;1729142;83;25848;-59
2022/10/22 01:21:58;;;;;;;;;;;;;;;6.40;55.31;101541.87;1679549;83;25703;-60
2022/10/22 01:24:54;;;;;;;;;;;;;;;6.42;55.31;101539.49;1727549;82;25975;-60
2022/10/22 01:27:27;;;;;;;;;;;;;;;6.45;55.49;101538.93;1726744;83;25636;-60
2022/10/22 01:30:03;;;;;;;;;;;;;;;6.48;55.32;101540.06;1724916;83;27524;-60
2022/10/22 01:32:32;;;;;;;;;;;;;;;6.49;55.31;101529.30;1724690;83;25724;-60
2022/10/22 01:35:05;;;;;;;;;;;;;;;6.53;55.24;101531.31;1685312;84;25722;-60
2022/10/22 01:37:35;;;;;;;;;;;;;;;6.55;55.25;101526.72;1674437;85;25852;-60
2022/10/22 01:40:03;;;;;;;;;;;;;;;6.57;55.47;101523.02;1677299;85;25730;-59
2022/10/22 01:42:30;;;;;;;;;;;;;;;6.60;55.41;101514.41;1683199;85;27483;-59
2022/10/22 01:44:56;;;;;;;;;;;;;;;6.62;55.87;101516.52;1692739;83;25544;-59
2022/10/22 01:47:49;;;;;;;;;;;;;;;6.63;55.46;101508.89;1726805;83;25492;-59
2022/10/22 01:50:46;;;;;;;;;;;;;;;6.65;55.75;101501.64;1713739;82;25794;-60
2022/10/22 01:53:26;;;;;;;;;;;;;;;6.66;55.88;101494.02;1720342;83;25785;-60
2022/10/22 01:55:56;;;;;;;;;;;;;;;6.67;55.58;101500.59;1697746;84;27543;-60
2022/10/22 01:58:29;;;;;;;;;;;;;;;6.70;55.69;101491.52;1698497;83;25690;-60
2022/10/22 02:01:06;;;;;;;;;;;;;;;6.70;55.48;101492.39;1698043;83;25493;-59
2022/10/22 02:03:37;;;;;;;;;;;;;;;6.73;55.71;101502.88;1711609;83;26566;-59
2022/10/22 02:06:07;;;;;;;;;;;;;;;6.71;55.95;101503.94;1726885;83;27211;-59
2022/10/22 02:08:35;;;;;;;;;;;;;;;6.74;55.79;101498.41;1727056;82;27561;-59
2022/10/22 02:11:02;;;;;;;;;;;;;;;6.77;55.68;101495.53;1726873;83;25746;-60
2022/10/22 02:13:35;;;;;;;;;;;;;;;6.80;56.07;101495.36;1723200;83;25753;-60
2022/10/22 02:16:05;;;;;;;;;;;;;;;6.82;55.82;101497.92;1725372;83;25893;-61
2022/10/22 02:18:33;;;;;;;;;;;;;;;6.81;56.03;101495.74;1726920;83;25824;-60
2022/10/22 02:21:00;;;;;;;;;;;;;;;6.81;56.12;101494.41;1726814;83;27593;-60
2022/10/22 02:23:28;;;;;;;;;;;;;;;6.83;55.85;101493.84;1695576;82;25724;-60
2022/10/22 02:26:01;;;;;;;;;;;;;;;6.86;56.29;101507.50;1692371;84;25735;-60
2022/10/22 02:28:33;;;;;;;;;;;;;;;6.87;56.33;101521.26;1700712;83;25895;-61
2022/10/22 02:31:02;;;;;;;;;;;;;;;6.88;56.37;101518.48;1693507;83;25685;-60
2022/10/22 02:33:38;;;;;;;;;;;;;;;6.92;56.06;101523.16;1692246;84;28427;-59
2022/10/22 02:36:06;;;;;;;;;;;;;;;6.95;55.98;101524.32;1692085;84;25490;-59
2022/10/22 02:38:34;;;;;;;;;;;;;;;6.98;55.99;101518.80;1682952;83;25761;-59
2022/10/22 02:41:01;;;;;;;;;;;;;;;7.02;55.59;101522.14;1708153;83;25853;-59
2022/10/22 02:43:28;;;;;;;;;;;;;;;7.04;55.69;101521.08;1692319;84;25719;-60
2022/10/22 02:45:55;;;;;;;;;;;;;;;7.08;56.21;101515.55;1692431;84;29686;-59
2022/10/22 02:48:21;;;;;;;;;;;;;;;7.10;55.99;101510.94;1717893;83;25860;-59
2022/10/22 02:50:48;;;;;;;;;;;;;;;7.11;56.25;101502.84;1710520;83;25625;-59
2022/10/22 02:53:15;;;;;;;;;;;;;;;7.13;56.06;101504.07;1721070;83;25875;-59
2022/10/22 02:55:41;;;;;;;;;;;;;;;7.13;56.33;101495.55;1721472;83;25710;-60
2022/10/22 02:58:07;;;;;;;;;;;;;;;7.14;56.25;101491.92;1673963;83;27493;-60
2022/10/22 03:00:34;;;;;;;;;;;;;;;7.12;56.53;101488.51;1664442;86;25796;-60
2022/10/22 03:03:01;;;;;;;;;;;;;;;7.10;56.98;101485.06;1664602;85;25771;-60
2022/10/22 03:05:28;;;;;;;;;;;;;;;7.10;56.63;101479.70;1664473;86;25802;-60
2022/10/22 03:07:54;;;;;;;;;;;;;;;7.11;56.84;101472.53;1702729;83;25686;-60
2022/10/22 03:10:21;;;;;;;;;;;;;;;7.12;56.58;101476.92;1721353;82;27485;-61
2022/10/22 03:12:47;;;;;;;;;;;;;;;7.10;56.96;101475.70;1721201;83;25905;-61
2022/10/22 03:15:14;;;;;;;;;;;;;;;7.09;56.69;101480.66;1721452;83;25772;-60
2022/10/22 03:17:40;;;;;;;;;;;;;;;7.09;56.70;101475.77;1686316;83;26009;-59
2022/10/22 03:20:08;;;;;;;;;;;;;;;7.10;56.47;101475.70;1664845;86;26099;-60
2022/10/22 03:22:36;;;;;;;;;;;;;;;7.13;56.26;101475.48;1680030;83;27491;-61
2022/10/22 03:25:06;;;;;;;;;;;;;;;7.14;56.51;101476.36;1659977;84;25803;-60
2022/10/22 03:27:35;;;;;;;;;;;;;;;7.13;56.30;101466.12;1671285;86;25750;-61
2022/10/22 03:30:03;;;;;;;;;;;;;;;7.15;56.29;101464.70;1669453;83;25794;-60
2022/10/22 03:32:30;;;;;;;;;;;;;;;7.15;56.42;101472.23;1664600;85;25647;-61
2022/10/22 03:34:56;;;;;;;;;;;;;;;7.16;56.51;101465.94;1665766;84;27564;-59
2022/10/22 03:37:25;;;;;;;;;;;;;;;7.15;56.92;101464.70;1664403;86;27359;-60
2022/10/22 03:39:52;;;;;;;;;;;;;;;7.12;56.66;101453.72;1668152;85;25766;-60
2022/10/22 03:42:19;;;;;;;;;;;;;;;7.11;57.19;101456.47;1682270;85;25920;-60
2022/10/22 03:44:46;;;;;;;;;;;;;;;7.05;57.30;101452.36;1688307;83;25952;-60
2022/10/22 03:47:12;;;;;;;;;;;;;;;7.03;58.06;101448.46;1694587;84;27649;-60
2022/10/22 03:49:39;;;;;;;;;;;;;;;7.02;57.81;101447.23;1693176;83;25511;-59
2022/10/22 03:52:10;;;;;;;;;;;;;;;7.03;57.72;101441.77;1677363;85;25455;-60
2022/10/22 03:54:37;;;;;;;;;;;;;;;7.06;57.92;101446.06;1671620;83;25778;-61
2022/10/22 03:57:05;;;;;;;;;;;;;;;7.10;57.93;101440.91;1666420;86;25756;-60
2022/10/22 03:59:39;;;;;;;;;;;;;;;7.14;57.67;101442.91;1666162;86;27442;-61
2022/10/22 04:02:07;;;;;;;;;;;;;;;7.16;57.98;101453.05;1666573;86;25792;-59
2022/10/22 04:04:34;;;;;;;;;;;;;;;7.18;57.68;101461.35;1667027;84;25763;-60
2022/10/22 04:07:01;;;;;;;;;;;;;;;7.23;57.75;101458.84;1666399;86;25728;-59
2022/10/22 04:09:33;;;;;;;;;;;;;;;7.27;57.37;101455.03;1666603;86;25965;-60
2022/10/22 04:12:00;;;;;;;;;;;;;;;7.29;57.46;101440.59;1665781;85;27673;-60
2022/10/22 04:14:26;;;;;;;;;;;;;;;7.29;57.70;101437.06;1709853;83;27340;-60
2022/10/22 04:16:53;;;;;;;;;;;;;;;7.31;57.69;101437.80;1723285;83;25717;-60
2022/10/22 04:19:20;;;;;;;;;;;;;;;7.35;57.47;101431.30;1718273;83;25925;-60
2022/10/22 04:21:47;;;;;;;;;;;;;;;7.40;57.57;101436.36;1687667;85;25442;-59
2022/10/22 04:24:13;;;;;;;;;;;;;;;7.43;57.57;101438.85;1687726;83;27697;-59
2022/10/22 04:26:40;;;;;;;;;;;;;;;7.45;57.52;101441.80;1687936;84;25933;-60
2022/10/22 04:29:06;;;;;;;;;;;;;;;7.48;57.80;101442.95;1694177;83;26254;-61
2022/10/22 04:31:33;;;;;;;;;;;;;;;7.51;57.61;101440.55;1716506;83;26500;-60
2022/10/22 04:34:01;;;;;;;;;;;;;;;7.56;57.71;101446.45;1716371;83;25801;-60
2022/10/22 04:36:28;;;;;;;;;;;;;;;7.60;57.81;101439.08;1716397;83;27877;-60
2022/10/22 04:38:57;;;;;;;;;;;;;;;7.63;57.69;101430.85;1711050;83;25862;-60
2022/10/22 04:41:28;;;;;;;;;;;;;;;7.66;57.62;101427.98;1682405;84;25711;-60
2022/10/22 04:43:56;;;;;;;;;;;;;;;7.68;57.62;101423.36;1684786;85;26492;-60
2022/10/22 04:46:23;;;;;;;;;;;;;;;7.71;57.56;101425.00;1685435;85;25733;-60
2022/10/22 04:48:50;;;;;;;;;;;;;;;7.73;57.34;101433.77;1687633;83;27489;-60
2022/10/22 04:51:19;;;;;;;;;;;;;;;7.75;57.71;101439.89;1693349;83;25687;-60
2022/10/22 04:53:46;;;;;;;;;;;;;;;7.77;57.52;101438.82;1711781;83;25657;-60
2022/10/22 04:56:23;;;;;;;;;;;;;;;7.78;57.88;101439.70;1714399;83;25805;-60
2022/10/22 04:58:56;;;;;;;;;;;;;;;7.80;58.03;101433.73;1710473;82;25990;-60
2022/10/22 05:01:28;;;;;;;;;;;;;;;7.81;58.48;101430.10;1685012;84;27489;-59
2022/10/22 05:03:57;;;;;;;;;;;;;;;7.83;57.89;101437.09;1685636;84;25684;-61
2022/10/22 05:06:25;;;;;;;;;;;;;;;7.83;58.04;101431.74;1695070;83;25703;-61
2022/10/22 05:08:54;;;;;;;;;;;;;;;7.86;57.88;101432.02;1714438;83;25846;-60
2022/10/22 05:11:23;;;;;;;;;;;;;;;7.89;57.94;101427.77;1685620;83;25743;-61
2022/10/22 05:13:50;;;;;;;;;;;;;;;7.91;58.04;101427.69;1685916;85;27483;-60
2022/10/22 05:16:16;;;;;;;;;;;;;;;7.94;58.41;101427.00;1685320;83;25809;-60
2022/10/22 05:18:44;;;;;;;;;;;;;;;7.95;58.30;101420.68;1686154;85;25678;-60
2022/10/22 05:21:14;;;;;;;;;;;;;;;7.97;58.31;101416.08;1685565;84;25811;-60
2022/10/22 05:23:40;;;;;;;;;;;;;;;7.99;58.52;101406.09;1685920;84;25778;-60
2022/10/22 05:26:09;;;;;;;;;;;;;;;8.01;58.64;101411.38;1685467;83;27460;-60
2022/10/22 05:28:36;;;;;;;;;;;;;;;8.03;58.92;101409.92;1685923;85;25742;-61
2022/10/22 05:31:04;;;;;;;;;;;;;;;8.03;58.79;101407.23;1685687;85;25762;-60
2022/10/22 05:33:31;;;;;;;;;;;;;;;8.04;58.93;101408.46;1685847;84;25743;-61
2022/10/22 05:35:58;;;;;;;;;;;;;;;8.06;58.73;101409.23;1689683;83;25794;-61
2022/10/22 05:38:25;;;;;;;;;;;;;;;8.09;58.70;101407.69;1714434;83;27486;-61
2022/10/22 05:41:00;;;;;;;;;;;;;;;8.13;58.87;101400.30;1695639;83;25737;-61
2022/10/22 05:43:27;;;;;;;;;;;;;;;8.15;59.02;101410.44;1713008;83;25704;-60
2022/10/22 05:45:54;;;;;;;;;;;;;;;8.20;58.82;101406.95;1682570;83;25797;-60
2022/10/22 05:48:21;;;;;;;;;;;;;;;8.26;58.67;101407.86;1685645;84;27427;-60
2022/10/22 05:50:49;;;;;;;;;;;;;;;8.31;58.78;101400.84;1685335;85;27934;-59
2022/10/22 05:53:17;;;;;;;;;;;;;;;8.37;59.07;101397.75;1685362;85;25663;-60
2022/10/22 05:55:44;;;;;;;;;;;;;;;8.46;58.58;101409.18;1685244;83;25774;-61
2022/10/22 05:58:11;;;;;;;;;;;;;;;8.52;58.42;101406.56;1685616;85;25838;-60
2022/10/22 06:00:38;;;;;;;;;;;;;;;8.59;58.44;101398.48;1705765;83;25717;-60
2022/10/22 06:03:05;;;;;;;;;;;;;;;8.66;58.26;101403.41;1714365;83;27583;-60
2022/10/22 06:05:36;;;;;;;;;;;;;;;8.69;58.43;101398.68;1712614;83;25821;-60
2022/10/22 06:08:03;;;;;;;;;;;;;;;8.75;58.30;101404.94;1657970;86;25781;-59
2022/10/22 06:10:29;;;;;;;;;;;;;;;8.80;58.27;101408.64;1657798;85;25921;-60
2022/10/22 06:12:56;;;;;;;;;;;;;;;8.85;58.35;101419.92;1657890;85;26105;-60
2022/10/22 06:15:22;;;;;;;;;;;;;;;8.87;58.28;101419.80;1657763;85;27517;-60
2022/10/22 06:17:49;;;;;;;;;;;;;;;8.92;58.10;101421.66;1685199;83;25738;-60
2022/10/22 06:20:15;;;;;;;;;;;;;;;8.98;57.90;101413.19;1685830;84;25760;-60
2022/10/22 06:22:42;;;;;;;;;;;;;;;9.03;57.90;101417.73;1686014;84;26517;-59
2022/10/22 06:25:09;;;;;;;;;;;;;;;9.10;57.94;101410.60;1680544;83;25774;-60
2022/10/22 06:27:35;;;;;;;;;;;;;;;9.17;57.75;101400.63;1686278;83;27628;-60
2022/10/22 06:30:03;;;;;;;;;;;;;;;9.24;57.66;101394.34;1682923;85;25746;-60
2022/10/22 06:32:29;;;;;;;;;;;;;;;9.30;57.48;101394.38;1682916;85;25813;-60
2022/10/22 06:34:56;;;;;;;;;;;;;;;9.34;57.55;101388.67;1659218;85;25876;-60
2022/10/22 06:37:22;;;;;;;;;;;;;;;9.42;57.44;101387.24;1703385;82;25740;-60
2022/10/22 06:39:49;;;;;;;;;;;;;;;9.48;57.26;101398.86;1709852;83;27470;-60
2022/10/22 06:42:16;;;;;;;;;;;;;;;9.55;57.13;101398.30;1711216;84;25835;-62
2022/10/22 06:44:43;;;;;;;;;;;;;;;9.66;56.91;101385.91;1711291;83;25679;-60
2022/10/22 06:47:10;;;;;;;;;;;;;;;9.75;56.89;101387.90;1690415;84;26491;-61
2022/10/22 06:49:36;;;;;;;;;;;;;;;9.83;56.64;101380.11;1699280;82;26014;-60
2022/10/22 06:52:03;;;;;;;;;;;;;;;9.95;56.54;101381.00;1711234;83;27552;-60
2022/10/22 06:54:29;;;;;;;;;;;;;;;10.09;56.21;101381.29;1711877;83;25975;-61
2022/10/22 06:56:55;;;;;;;;;;;;;;;10.21;55.98;101380.83;1710875;82;25809;-61
2022/10/22 06:59:22;;;;;;;;;;;;;;;10.38;55.86;101383.59;1711301;84;25776;-61
2022/10/22 07:01:48;;;;;;;;;;;;;;;10.56;55.50;101387.16;1711563;83;25766;-60
2022/10/22 07:04:15;;;;;;;;;;;;;;;10.70;55.10;101386.06;1711155;84;28249;-60
2022/10/22 07:06:42;;;;;;;;;;;;;;;10.82;54.91;101385.06;1705989;82;25991;-60
2022/10/22 07:09:08;;;;;;;;;;;;;;;10.96;54.61;101373.19;1710860;84;25714;-60
2022/10/22 07:11:40;;;;;;;;;;;;;;;11.10;54.54;101375.64;1711275;84;25846;-60
2022/10/22 07:14:07;;;;;;;;;;;;;;;11.20;54.09;101373.55;1711385;84;25856;-61
2022/10/22 07:16:34;;;;;;;;;;;;;;;11.29;53.87;101367.41;1717686;82;28370;-61
2022/10/22 07:19:02;;;;;;;;;;;;;;;11.37;53.46;101367.62;1716758;82;25724;-61
2022/10/22 07:21:29;;;;;;;;;;;;;;;11.41;53.39;101366.88;1740908;82;25705;-61
2022/10/22 07:23:56;;;;;;;;;;;;;;;11.44;52.81;101371.98;1741099;81;26512;-61
2022/10/22 07:26:24;;;;;;;;;;;;;;;11.50;52.90;101373.32;1709687;82;25811;-61
2022/10/22 07:28:51;;;;;;;;;;;;;;;11.57;52.70;101373.17;1679070;85;27555;-60
2022/10/22 07:31:18;;;;;;;;;;;;;;;11.65;52.68;101364.45;1678883;85;25775;-61
2022/10/22 07:33:45;;;;;;;;;;;;;;;11.71;52.34;101362.11;1679127;85;25728;-60
2022/10/22 07:36:16;;;;;;;;;;;;;;;11.77;52.34;101371.52;1692972;82;25840;-61
2022/10/22 07:38:44;;;;;;;;;;;;;;;11.82;52.01;101366.58;1707788;84;25473;-60
2022/10/22 07:41:11;;;;;;;;;;;;;;;11.90;52.20;101362.73;1705084;82;27592;-61
2022/10/22 07:43:38;;;;;;;;;;;;;;;11.98;52.02;101368.87;1709616;83;25794;-61
2022/10/22 07:46:05;;;;;;;;;;;;;;;12.05;51.95;101366.52;1707398;84;25695;-61
2022/10/22 07:48:32;;;;;;;;;;;;;;;12.16;51.66;101368.28;1707711;83;26502;-60
2022/10/22 07:50:58;;;;;;;;;;;;;;;12.21;51.67;101368.72;1695401;84;25615;-61
2022/10/22 07:53:25;;;;;;;;;;;;;;;12.28;51.52;101366.36;1698012;84;28294;-61
2022/10/22 07:55:52;;;;;;;;;;;;;;;12.35;51.22;101375.63;1697643;84;25686;-62
2022/10/22 07:58:19;;;;;;;;;;;;;;;12.36;51.28;101371.95;1732925;82;25701;-60
2022/10/22 08:00:46;;;;;;;;;;;;;;;12.41;51.33;101367.02;1736854;82;28004;-61
2022/10/22 08:03:15;;;;;;;;;;;;;;;12.47;51.41;101360.20;1736801;82;26269;-61
2022/10/22 08:05:45;;;;;;;;;;;;;;;12.51;51.33;101362.50;1736738;82;28310;-59
2022/10/22 08:08:11;;;;;;;;;;;;;;;12.53;51.17;101363.23;1725328;82;25821;-60
2022/10/22 08:10:38;;;;;;;;;;;;;;;12.59;51.12;101359.65;1735414;82;25778;-59
2022/10/22 08:13:05;;;;;;;;;;;;;;;12.66;51.20;101358.11;1737151;82;25803;-60
2022/10/22 08:15:33;;;;;;;;;;;;;;;12.76;51.04;101359.48;1732975;82;25671;-60
2022/10/22 08:17:59;;;;;;;;;;;;;;;12.84;50.90;101361.02;1736807;82;27740;-60
2022/10/22 08:20:26;;;;;;;;;;;;;;;12.94;50.94;101355.66;1737291;82;26288;-60
2022/10/22 08:22:52;;;;;;;;;;;;;;;13.03;50.45;101350.78;1735403;82;25803;-60
2022/10/22 08:25:19;;;;;;;;;;;;;;;13.12;50.36;101353.13;1738395;82;25960;-60
2022/10/22 08:27:45;;;;;;;;;;;;;;;13.25;50.29;101357.80;1742646;81;25773;-61
2022/10/22 08:30:14;;;;;;;;;;;;;;;13.40;50.16;101360.12;1704322;81;28311;-60
2022/10/22 08:32:42;;;;;;;;;;;;;;;13.54;49.76;101354.80;1684383;85;25784;-61
2022/10/22 08:35:09;;;;;;;;;;;;;;;13.65;48.45;101357.38;1684554;84;25825;-61
2022/10/22 08:37:35;;;;;;;;;;;;;;;13.71;48.41;101354.09;1707246;82;25798;-60
2022/10/22 08:40:03;;;;;;;;;;;;;;;13.80;48.17;101356.45;1733888;81;25638;-61
2022/10/22 08:42:40;;;;;;;;;;;;;;;13.90;48.13;101361.84;1712964;83;28149;-61
2022/10/22 08:45:31;;;;;;;;;;;;;;;14.03;47.82;101355.61;1710000;82;25785;-60
2022/10/22 08:48:22;;;;;;;;;;;;;;;14.16;47.12;101366.16;1703599;83;25781;-60
2022/10/22 08:50:51;;;;;;;;;;;;;;;14.25;45.72;101366.61;1691536;82;26864;-60
2022/10/22 08:53:20;;;;;;;;;;;;;;;14.38;45.89;101371.73;1732723;82;25677;-59
2022/10/22 08:55:48;;;;;;;;;;;;;;;14.53;45.73;101369.91;1720728;82;27504;-60
2022/10/22 08:58:31;;;;;;;;;;;;;;;14.69;45.70;101373.38;1714165;82;25767;-59
2022/10/22 09:01:04;;;;;;;;;;;;;;;14.86;45.30;101374.42;1742788;82;25767;-60
2022/10/22 09:03:40;;;;;;;;;;;;;;;14.99;44.91;101372.72;1742260;82;25860;-61
2022/10/22 09:06:18;;;;;;;;;;;;;;;15.15;44.09;101376.98;1709453;82;25770;-60
2022/10/22 09:08:46;;;;;;;;;;;;;;;15.26;43.42;101369.16;1681587;85;28354;-60
2022/10/22 09:11:25;;;;;;;;;;;;;;;15.31;42.84;101364.64;1694030;82;25732;-61
2022/10/22 09:13:53;;;;;;;;;;;;;;;15.39;42.60;101367.43;1703519;82;25856;-61
2022/10/22 09:16:32;;;;;;;;;;;;;;;15.49;42.61;101372.28;1712840;82;25796;-61
2022/10/22 09:19:18;;;;;;;;;;;;;;;15.53;41.82;101367.89;1711504;83;25932;-59
2022/10/22 09:22:03;;;;;;;;;;;;;;;15.76;42.44;101364.21;1712368;82;27462;-60
2022/10/22 09:24:38;;;;;;;;;;;;;;;16.08;42.23;101358.23;1741515;82;25708;-60
2022/10/22 09:27:17;;;;;;;;;;;;;;;16.35;40.07;101353.67;1739000;81;25454;-60
2022/10/22 09:29:45;;;;;;;;;;;;;;;16.63;40.31;101354.84;1742664;82;28038;-60
2022/10/22 09:32:11;;;;;;;;;;;;;;;16.89;40.24;101356.17;1712575;82;25829;-61
2022/10/22 09:34:38;;;;;;;;;;;;;;;17.01;40.43;101364.91;1714343;82;27540;-61
2022/10/22 09:37:07;;;;;;;;;;;;;;;17.11;39.89;101360.67;1733008;82;25715;-60
2022/10/22 09:39:49;;;;;;;;;;;;;;;17.17;38.93;101354.57;1716696;82;25667;-61
2022/10/22 09:42:18;;;;;;;;;;;;;;;17.33;38.92;101340.17;1685948;83;26332;-60
2022/10/22 09:44:53;;;;;;;;;;;;;;;17.84;38.69;101346.86;1728804;83;25692;-61
2022/10/22 09:47:30;;;;;;;;;;;;;;;18.48;38.02;101343.89;1728667;82;27527;-61
2022/10/22 09:50:27;;;;;;;;;;;;;;;19.50;37.26;101340.87;1723279;82;25752;-61
2022/10/22 09:53:00;;;;;;;;;;;;;;;20.33;34.28;101329.59;1690553;83;25441;-61
2022/10/22 09:55:27;;;;;;;;;;;;;;;21.23;34.48;101324.58;1671486;86;25809;-61
2022/10/22 09:57:57;;;;;;;;;;;;;;;21.91;33.86;101319.25;1698977;83;25813;-61
2022/10/22 10:00:25;;;;;;;;;;;;;;;22.72;33.74;101310.52;1699655;82;27595;-61
2022/10/22 10:02:59;;;;;;;;;;;;;;;23.27;31.25;101307.77;1699460;84;25771;-60
2022/10/22 10:05:29;;;;;;;;;;;;;;;24.03;32.01;101311.73;1699536;84;25837;-60
2022/10/22 10:07:57;;;;;;;;;;;;;;;24.43;30.08;101299.30;1699430;84;25808;-61
2022/10/22 10:10:29;;;;;;;;;;;;;;;24.44;27.86;101294.13;1722826;83;27404;-61
2022/10/22 10:13:18;;;;;;;;;;;;;;;25.06;29.81;101294.20;1728565;82;27541;-61
2022/10/22 10:16:03;;;;;;;;;;;;;;;25.61;29.26;101290.91;1728691;82;25786;-60
2022/10/22 10:18:45;;;;;;;;;;;;;;;25.77;27.73;101295.02;1727392;82;25765;-60
2022/10/22 10:21:27;;;;;;;;;;;;;;;25.78;28.24;101289.80;1716291;83;25707;-60
2022/10/22 10:23:57;;;;;;;;;;;;;;;25.45;25.74;101281.28;1673142;83;25842;-61
2022/10/22 10:26:30;;;;;;;;;;;;;;;25.20;26.83;101288.94;1677927;83;27510;-60
2022/10/22 10:29:02;;;;;;;;;;;;;;;24.88;26.86;101283.93;1721786;83;26515;-62
2022/10/22 10:31:35;;;;;;;;;;;;;;;24.66;28.13;101275.94;1709161;83;25539;-61
2022/10/22 10:34:21;;;;;;;;;;;;;;;24.31;27.03;101263.91;1709854;83;25816;-62
2022/10/22 10:37:01;;;;;;;;;;;;;;;24.12;27.25;101254.66;1710376;83;25756;-61
2022/10/22 10:39:34;;;;;;;;;;;;;;;24.26;27.06;101256.30;1695862;83;28214;-61
2022/10/22 10:42:28;;;;;;;;;;;;;;;24.88;26.93;101255.03;1694404;83;25789;-61
2022/10/22 10:45:04;;;;;;;;;;;;;;;25.63;25.98;101246.91;1694392;84;25415;-61
2022/10/22 10:48:07;;;;;;;;;;;;;;;26.34;25.48;101247.17;1702417;83;25985;-61
2022/10/22 10:50:53;;;;;;;;;;;;;;;26.67;25.56;101249.53;1682920;85;25630;-61
2022/10/22 10:53:40;;;;;;;;;;;;;;;27.31;25.03;101260.11;1691050;84;27663;-61
2022/10/22 10:56:31;;;;;;;;;;;;;;;27.73;24.44;101248.72;1694212;84;25902;-61
2022/10/22 10:59:19;;;;;;;;;;;;;;;27.90;24.73;101248.30;1693182;83;25786;-62
2022/10/22 11:02:24;;;;;;;;;;;;;;;28.21;25.19;101242.64;1702482;83;26249;-61
2022/10/22 11:05:10;;;;;;;;;;;;;;;28.69;23.94;101242.82;1672446;85;25758;-61
2022/10/22 11:07:43;;;;;;;;;;;;;;;28.80;24.12;101236.96;1730716;82;27521;-61
2022/10/22 11:10:16;;;;;;;;;;;;;;;29.13;23.90;101232.61;1729445;82;25555;-61
2022/10/22 11:12:45;;;;;;;;;;;;;;;29.18;23.62;101229.91;1728055;82;25780;-62
2022/10/22 11:15:15;;;;;;;;;;;;;;;29.00;23.27;101228.19;1730369;82;25725;-61
2022/10/22 11:17:46;;;;;;;;;;;;;;;29.14;23.34;101238.41;1729974;82;27552;-61
2022/10/22 11:20:21;;;;;;;;;;;;;;;29.15;22.66;101233.73;1706280;83;27486;-61
2022/10/22 11:23:00;;;;;;;;;;;;;;;29.12;22.29;101229.53;1730465;82;25843;-61
2022/10/22 11:25:29;;;;;;;;;;;;;;;28.96;23.43;101218.72;1730426;82;25785;-61
2022/10/22 11:28:02;;;;;;;;;;;;;;;28.77;23.51;101220.87;1718083;82;26039;-61
2022/10/22 11:30:31;;;;;;;;;;;;;;;28.42;22.81;101218.48;1701305;83;25771;-61
2022/10/22 11:33:00;;;;;;;;;;;;;;;28.00;22.54;101217.30;1717660;82;27568;-61
2022/10/22 11:35:35;;;;;;;;;;;;;;;27.55;23.51;101216.52;1747863;81;25967;-61
2022/10/22 11:38:04;;;;;;;;;;;;;;;27.32;24.10;101225.03;1774225;81;25802;-61
2022/10/22 11:40:39;;;;;;;;;;;;;;;27.42;24.05;101225.84;1758457;81;26833;-61
2022/10/22 11:43:09;;;;;;;;;;;;;;;27.48;23.74;101231.83;1732618;82;25705;-61
2022/10/22 11:45:40;;;;;;;;;;;;;;;27.52;23.33;101226.66;1743791;81;27481;-61
2022/10/22 11:48:18;;;;;;;;;;;;;;;27.31;23.44;101221.97;1743307;81;25694;-61
2022/10/22 11:50:58;;;;;;;;;;;;;;;27.13;22.92;101227.05;1740471;82;25920;-61
2022/10/22 11:53:29;;;;;;;;;;;;;;;27.03;22.30;101220.17;1737384;82;26884;-60
2022/10/22 11:55:59;;;;;;;;;;;;;;;26.72;22.20;101205.50;1738910;82;26332;-61
2022/10/22 11:58:43;;;;;;;;;;;;;;;26.40;23.30;101202.97;1724478;81;27520;-62
2022/10/22 12:01:14;;;;;;;;;;;;;;;26.22;24.67;101207.13;1742000;81;25768;-62
2022/10/22 12:03:59;;;;;;;;;;;;;;;26.15;24.73;101203.61;1773934;81;25686;-60
2022/10/22 12:06:27;;;;;;;;;;;;;;;26.13;25.41;101203.84;1748675;81;25793;-61
2022/10/22 12:08:56;;;;;;;;;;;;;;;25.85;25.67;101203.80;1742488;81;25803;-60
2022/10/22 12:11:28;;;;;;;;;;;;;;;25.77;25.89;101206.85;1743383;81;27704;-60
2022/10/22 12:14:04;;;;;;;;;;;;;;;25.81;26.13;101208.06;1732835;82;25508;-60
2022/10/22 12:16:44;;;;;;;;;;;;;;;25.76;26.46;101201.86;1749180;81;25713;-62
2022/10/22 12:19:14;;;;;;;;;;;;;;;25.89;26.14;101196.73;1746568;81;26365;-61
2022/10/22 12:21:43;;;;;;;;;;;;;;;25.82;26.15;101196.52;1726908;81;25740;-61
2022/10/22 12:24:18;;;;;;;;;;;;;;;25.84;26.65;101191.08;1773777;81;27570;-61
2022/10/22 12:26:48;;;;;;;;;;;;;;;25.96;26.37;101190.30;1775055;80;25849;-61
2022/10/22 12:29:15;;;;;;;;;;;;;;;25.98;26.23;101193.68;1785641;79;25786;-61
2022/10/22 12:31:44;;;;;;;;;;;;;;;26.16;26.25;101192.89;1757791;80;26395;-60
2022/10/22 12:34:15;;;;;;;;;;;;;;;26.41;26.06;101191.39;1756872;81;25795;-60
2022/10/22 12:36:42;;;;;;;;;;;;;;;26.76;25.68;101184.34;1756610;80;27688;-60
2022/10/22 12:39:15;;;;;;;;;;;;;;;27.18;25.46;101188.50;1756315;80;25765;-61
2022/10/22 12:41:42;;;;;;;;;;;;;;;27.53;24.95;101186.90;1781580;80;25678;-61
2022/10/22 12:44:12;;;;;;;;;;;;;;;27.65;25.04;101174.77;1788069;79;26753;-59
2022/10/22 12:46:39;;;;;;;;;;;;;;;27.87;24.71;101168.63;1787460;79;25820;-60
2022/10/22 12:49:09;;;;;;;;;;;;;;;28.08;24.46;101159.40;1784646;80;26982;-60
2022/10/22 12:51:35;;;;;;;;;;;;;;;28.38;24.53;101151.44;1778672;79;26095;-60
2022/10/22 12:54:06;;;;;;;;;;;;;;;28.62;23.30;101152.70;1788049;79;25702;-61
2022/10/22 12:56:34;;;;;;;;;;;;;;;28.95;23.39;101151.13;1777982;79;26378;-61
2022/10/22 12:59:20;;;;;;;;;;;;;;;28.72;23.29;101144.63;1784872;80;25828;-60
2022/10/22 13:01:48;;;;;;;;;;;;;;;28.94;23.42;101140.59;1787798;79;27512;-60